New Berlin, Pennsylvania
Current Conditions -  °F | °C
As of 11:53 AM on Thursday 30 Oct 2014 (Local Time) from KSEG Reporting Station
Overcast Overcast  
Wind Chill: 52°   Ceiling: 5500
Heat Index: 52°   Visibility: 10mi
Dew Point: 37°   Wind: 7mph
Humidity: 57%   Direction: 330°NNW
Pressure: 30.06"   Gusts: NA
Location:  40.88°N, 76.99°W
Report Text: KSEG 301553Z AUTO 33006KT 10SM FEW044 OVC055 11/03 A3006 RMK AO2 SLP180 T01110028
Loading
Personal Weather Stations






























Interactive Weather Map
Tropical Storm Tracking
New forecast layout! Learn more

10-Day Weather Forecast

Advertisements
Track Severe Weather on mobile